DLH2PY EDDK-EDDM
Flight info
| Callsign | DLH2PY |
|---|---|
| Flight time | N/A |
| Altitude | 31000 |
| Route | KUMIK1R/31R KUMIK Y854 BOMBI T104 ROKIL ROKIL1B |
| Aircraft | A320/M-SDE3FGHIRWY/LB1 |
Departure
| Time | 2026-04-26 14:39 |
|---|---|
| Airport | Cologne Bonn Airport (EDDK) |
Arrival
| Time | N/A |
|---|---|
| Airport | Munich Airport (EDDM) |
| Time | Latitude | Longitude | Altitude | Speed | Heading |
|---|---|---|---|---|---|
| 2026-04-26 14:15 | 50.86800 | 7.13899 | 255 ft | 0 kts | 227° |
| 2026-04-26 14:26 | 50.86804 | 7.13906 | 255 ft | 2 kts | 227° |
| 2026-04-26 14:26 | 50.86816 | 7.13926 | 255 ft | 2 kts | 227° |
| 2026-04-26 14:26 | 50.86828 | 7.13946 | 255 ft | 3 kts | 227° |
| 2026-04-26 14:26 | 50.86839 | 7.13967 | 255 ft | 3 kts | 220° |
| 2026-04-26 14:27 | 50.86855 | 7.13982 | 255 ft | 3 kts | 189° |
| 2026-04-26 14:27 | 50.86873 | 7.13981 | 254 ft | 3 kts | 166° |
| 2026-04-26 14:27 | 50.86892 | 7.13971 | 253 ft | 3 kts | 136° |
| 2026-04-26 14:27 | 50.86897 | 7.13962 | 252 ft | 0 kts | 131° |
| 2026-04-26 14:29 | 50.86892 | 7.13971 | 253 ft | 6 kts | 131° |
| 2026-04-26 14:29 | 50.86839 | 7.14050 | 255 ft | 11 kts | 142° |
| 2026-04-26 14:29 | 50.86781 | 7.14113 | 255 ft | 9 kts | 157° |
| 2026-04-26 14:30 | 50.86730 | 7.14157 | 256 ft | 6 kts | 149° |
| 2026-04-26 14:30 | 50.86709 | 7.14179 | 258 ft | 2 kts | 146° |
| 2026-04-26 14:30 | 50.86665 | 7.14234 | 260 ft | 16 kts | 140° |
| 2026-04-26 14:30 | 50.86579 | 7.14362 | 262 ft | 16 kts | 136° |
| 2026-04-26 14:31 | 50.86509 | 7.14468 | 266 ft | 11 kts | 136° |
| 2026-04-26 14:31 | 50.86458 | 7.14544 | 269 ft | 14 kts | 137° |
| 2026-04-26 14:31 | 50.86366 | 7.14676 | 274 ft | 19 kts | 138° |
| 2026-04-26 14:31 | 50.86279 | 7.14799 | 279 ft | 14 kts | 138° |
| 2026-04-26 14:32 | 50.86209 | 7.14899 | 283 ft | 14 kts | 138° |
| 2026-04-26 14:32 | 50.86136 | 7.15004 | 286 ft | 13 kts | 138° |
| 2026-04-26 14:32 | 50.86047 | 7.15138 | 290 ft | 24 kts | 138° |
| 2026-04-26 14:32 | 50.85932 | 7.15302 | 293 ft | 17 kts | 137° |
| 2026-04-26 14:33 | 50.85853 | 7.15416 | 297 ft | 13 kts | 137° |
| 2026-04-26 14:33 | 50.85788 | 7.15510 | 299 ft | 14 kts | 139° |
| 2026-04-26 14:33 | 50.85712 | 7.15619 | 301 ft | 15 kts | 136° |
| 2026-04-26 14:33 | 50.85642 | 7.15722 | 303 ft | 12 kts | 137° |
| 2026-04-26 14:34 | 50.85574 | 7.15822 | 305 ft | 16 kts | 137° |
| 2026-04-26 14:34 | 50.85503 | 7.15935 | 310 ft | 13 kts | 120° |
| 2026-04-26 14:34 | 50.85528 | 7.16068 | 308 ft | 15 kts | 51° |
| 2026-04-26 14:34 | 50.85575 | 7.16152 | 308 ft | 0 kts | 51° |
| 2026-04-26 14:37 | 50.85584 | 7.16170 | 308 ft | 2 kts | 51° |
| 2026-04-26 14:37 | 50.85593 | 7.16187 | 308 ft | 3 kts | 51° |
| 2026-04-26 14:37 | 50.85698 | 7.16329 | 308 ft | 28 kts | 7° |
| 2026-04-26 14:38 | 50.85780 | 7.16191 | 306 ft | 18 kts | 315° |
| 2026-04-26 14:38 | 50.86009 | 7.15852 | 298 ft | 80 kts | 317° |
| 2026-04-26 14:38 | 50.86569 | 7.15044 | 276 ft | 136 kts | 317° |
| 2026-04-26 14:38 | 50.87096 | 7.14277 | 297 ft | 164 kts | 317° |
| 2026-04-26 14:39 | 50.88285 | 7.12576 | 820 ft | 184 kts | 318° |
| 2026-04-26 14:39 | 50.89280 | 7.11182 | 1300 ft | 196 kts | 320° |
| 2026-04-26 14:39 | 50.90340 | 7.09729 | 1842 ft | 206 kts | 320° |
| 2026-04-26 14:39 | 50.91454 | 7.08229 | 2372 ft | 217 kts | 321° |
| 2026-04-26 14:40 | 50.92668 | 7.06621 | 2844 ft | 236 kts | 321° |
| 2026-04-26 14:40 | 50.93953 | 7.04952 | 3435 ft | 251 kts | 321° |
| 2026-04-26 14:40 | 50.95373 | 7.03126 | 4121 ft | 265 kts | 321° |
| 2026-04-26 14:40 | 50.96827 | 7.01276 | 4868 ft | 263 kts | 322° |
| 2026-04-26 14:41 | 50.98391 | 7.00123 | 5049 ft | 241 kts | 356° |
| 2026-04-26 14:41 | 50.99932 | 7.00681 | 5188 ft | 222 kts | 35° |
| 2026-04-26 14:41 | 51.00864 | 7.02526 | 5762 ft | 224 kts | 63° |
| 2026-04-26 14:41 | 51.01146 | 7.04934 | 5632 ft | 218 kts | 96° |
| 2026-04-26 14:42 | 51.00553 | 7.07197 | 5925 ft | 232 kts | 131° |
| 2026-04-26 14:42 | 50.99281 | 7.08951 | 5620 ft | 270 kts | 152° |
| 2026-04-26 14:42 | 50.97341 | 7.10095 | 5182 ft | 317 kts | 166° |
| 2026-04-26 14:42 | 50.95090 | 7.10796 | 5099 ft | 339 kts | 172° |
| 2026-04-26 14:43 | 50.92701 | 7.11309 | 5116 ft | 352 kts | 173° |
| 2026-04-26 14:43 | 50.90231 | 7.11796 | 5120 ft | 362 kts | 173° |
| 2026-04-26 14:43 | 50.87693 | 7.12121 | 5114 ft | 369 kts | 185° |
| 2026-04-26 14:43 | 50.85239 | 7.10986 | 5118 ft | 373 kts | 211° |
| 2026-04-26 14:44 | 50.83400 | 7.08398 | 5114 ft | 334 kts | 237° |
| 2026-04-26 14:44 | 50.82658 | 7.05206 | 5111 ft | 294 kts | 268° |
| 2026-04-26 14:44 | 50.83046 | 7.02275 | 5112 ft | 259 kts | 301° |
| 2026-04-26 14:44 | 50.84114 | 7.00226 | 5171 ft | 227 kts | 318° |
| 2026-04-26 14:45 | 50.85280 | 6.98866 | 5529 ft | 191 kts | 330° |
| 2026-04-26 14:45 | 50.86069 | 6.98273 | 6153 ft | 195 kts | 337° |
| 2026-04-26 14:45 | 50.87947 | 6.97628 | 6627 ft | 225 kts | 360° |
| 2026-04-26 14:45 | 50.89563 | 6.98104 | 6906 ft | 251 kts | 21° |
| 2026-04-26 14:46 | 50.91085 | 6.99678 | 7345 ft | 272 kts | 44° |
| 2026-04-26 14:46 | 50.92132 | 7.02221 | 8082 ft | 282 kts | 68° |
| 2026-04-26 14:46 | 50.92571 | 7.05311 | 8881 ft | 288 kts | 78° |
| 2026-04-26 14:46 | 50.92897 | 7.08450 | 9696 ft | 292 kts | 78° |
| 2026-04-26 14:47 | 50.93249 | 7.11655 | 10376 ft | 301 kts | 75° |
| 2026-04-26 14:47 | 50.93873 | 7.14937 | 10618 ft | 322 kts | 65° |
| 2026-04-26 14:47 | 50.94858 | 7.18242 | 10954 ft | 338 kts | 60° |
| 2026-04-26 14:47 | 50.95930 | 7.21559 | 11571 ft | 345 kts | 60° |
| 2026-04-26 14:48 | 50.97021 | 7.24987 | 12294 ft | 350 kts | 61° |
| 2026-04-26 14:48 | 50.98116 | 7.28458 | 13004 ft | 354 kts | 61° |
| 2026-04-26 14:48 | 50.99223 | 7.31980 | 13742 ft | 359 kts | 61° |
| 2026-04-26 14:48 | 51.00306 | 7.35576 | 14042 ft | 363 kts | 66° |
| 2026-04-26 14:49 | 51.00840 | 7.38161 | 14104 ft | 365 kts | 74° |
| 2026-04-26 14:49 | 51.01244 | 7.43470 | 14128 ft | 368 kts | 89° |
| 2026-04-26 14:49 | 51.00953 | 7.47538 | 14619 ft | 374 kts | 101° |
| 2026-04-26 14:49 | 51.00241 | 7.51535 | 15291 ft | 377 kts | 107° |
| 2026-04-26 14:50 | 50.99464 | 7.55523 | 15947 ft | 380 kts | 107° |
| 2026-04-26 14:50 | 50.98681 | 7.59551 | 16578 ft | 383 kts | 107° |
| 2026-04-26 14:50 | 50.97889 | 7.63613 | 17206 ft | 386 kts | 107° |
| 2026-04-26 14:50 | 50.97087 | 7.67708 | 17834 ft | 390 kts | 107° |
| 2026-04-26 14:51 | 50.96272 | 7.71830 | 18464 ft | 394 kts | 107° |
| 2026-04-26 14:51 | 50.95446 | 7.75990 | 19012 ft | 397 kts | 107° |
| 2026-04-26 14:51 | 50.94561 | 7.80103 | 19530 ft | 400 kts | 112° |
| 2026-04-26 14:51 | 50.93343 | 7.84092 | 20085 ft | 403 kts | 120° |
| 2026-04-26 14:52 | 50.91828 | 7.87856 | 20611 ft | 406 kts | 124° |
| 2026-04-26 14:52 | 50.90262 | 7.91602 | 21155 ft | 409 kts | 124° |
| 2026-04-26 14:52 | 50.88675 | 7.95386 | 21699 ft | 412 kts | 124° |
| 2026-04-26 14:52 | 50.87084 | 7.99179 | 22233 ft | 415 kts | 124° |
| 2026-04-26 14:53 | 50.85461 | 8.02984 | 22749 ft | 418 kts | 127° |
| 2026-04-26 14:53 | 50.84251 | 8.05359 | 23079 ft | 420 kts | 133° |
| 2026-04-26 14:53 | 50.82148 | 8.08579 | 23572 ft | 422 kts | 142° |
| 2026-04-26 14:53 | 50.78944 | 8.12097 | 24152 ft | 424 kts | 149° |
| 2026-04-26 14:54 | 50.76443 | 8.14599 | 24550 ft | 427 kts | 149° |
| 2026-04-26 14:54 | 50.73930 | 8.17124 | 24944 ft | 429 kts | 148° |
| 2026-04-26 14:54 | 50.72226 | 8.18841 | 25203 ft | 431 kts | 148° |
| 2026-04-26 14:54 | 50.69693 | 8.21400 | 25580 ft | 433 kts | 148° |
| 2026-04-26 14:55 | 50.67150 | 8.23966 | 25949 ft | 436 kts | 148° |
| 2026-04-26 14:55 | 50.64582 | 8.26546 | 26308 ft | 438 kts | 148° |
| 2026-04-26 14:55 | 50.62001 | 8.29127 | 26653 ft | 440 kts | 148° |
| 2026-04-26 14:55 | 50.59444 | 8.31677 | 26989 ft | 443 kts | 148° |
| 2026-04-26 14:56 | 50.56802 | 8.34310 | 27337 ft | 445 kts | 148° |
| 2026-04-26 14:56 | 50.54176 | 8.36931 | 27686 ft | 448 kts | 148° |
| 2026-04-26 14:56 | 50.51541 | 8.39558 | 28015 ft | 450 kts | 148° |
| 2026-04-26 14:56 | 50.48920 | 8.42170 | 28359 ft | 452 kts | 148° |
| 2026-04-26 14:57 | 50.46250 | 8.44827 | 28671 ft | 455 kts | 148° |
| 2026-04-26 14:57 | 50.43569 | 8.47486 | 28991 ft | 457 kts | 148° |
| 2026-04-26 14:57 | 50.40869 | 8.50155 | 29289 ft | 459 kts | 148° |
| 2026-04-26 14:57 | 50.38189 | 8.52799 | 29575 ft | 461 kts | 149° |
| 2026-04-26 14:58 | 50.35402 | 8.55413 | 29862 ft | 463 kts | 151° |
| 2026-04-26 14:58 | 50.32586 | 8.57857 | 30135 ft | 464 kts | 153° |
| 2026-04-26 14:58 | 50.29719 | 8.60219 | 30432 ft | 465 kts | 154° |
| 2026-04-26 14:58 | 50.26884 | 8.62498 | 30726 ft | 464 kts | 154° |
| 2026-04-26 14:59 | 50.24004 | 8.64807 | 31006 ft | 464 kts | 154° |
| 2026-04-26 14:59 | 50.18292 | 8.69475 | 31095 ft | 463 kts | 153° |
| 2026-04-26 15:00 | 50.12605 | 8.74231 | 31105 ft | 462 kts | 153° |
| 2026-04-26 15:00 | 50.06987 | 8.78988 | 31098 ft | 462 kts | 149° |
| 2026-04-26 15:01 | 50.01974 | 8.85261 | 31103 ft | 464 kts | 139° |
| 2026-04-26 15:01 | 49.97203 | 8.92017 | 31090 ft | 463 kts | 139° |
| 2026-04-26 15:02 | 49.92436 | 8.98736 | 31093 ft | 463 kts | 139° |
| 2026-04-26 15:02 | 49.87668 | 9.05442 | 31104 ft | 462 kts | 139° |
| 2026-04-26 15:03 | 49.82931 | 9.12084 | 31105 ft | 462 kts | 139° |
| 2026-04-26 15:03 | 49.78163 | 9.18748 | 31102 ft | 462 kts | 139° |
| 2026-04-26 15:04 | 49.73386 | 9.25400 | 31096 ft | 461 kts | 139° |
| 2026-04-26 15:04 | 49.68620 | 9.32024 | 31109 ft | 461 kts | 140° |
| 2026-04-26 15:05 | 49.63857 | 9.38638 | 31104 ft | 460 kts | 140° |
| 2026-04-26 15:05 | 49.59416 | 9.45687 | 31100 ft | 461 kts | 133° |
| 2026-04-26 15:06 | 49.55184 | 9.53132 | 31104 ft | 461 kts | 133° |
| 2026-04-26 15:06 | 49.50942 | 9.60569 | 31101 ft | 462 kts | 133° |
| 2026-04-26 15:07 | 49.44564 | 9.71687 | 31094 ft | 462 kts | 133° |
| 2026-04-26 15:07 | 49.40310 | 9.79081 | 30874 ft | 462 kts | 133° |
| 2026-04-26 15:08 | 49.38174 | 9.82783 | 30625 ft | 463 kts | 133° |
| 2026-04-26 15:08 | 49.36040 | 9.86479 | 30382 ft | 463 kts | 133° |
| 2026-04-26 15:08 | 49.33899 | 9.90184 | 30106 ft | 464 kts | 134° |
| 2026-04-26 15:08 | 49.31764 | 9.93871 | 29819 ft | 462 kts | 134° |
| 2026-04-26 15:09 | 49.29630 | 9.97544 | 29536 ft | 460 kts | 134° |
| 2026-04-26 15:09 | 49.27499 | 10.01204 | 29255 ft | 458 kts | 134° |
| 2026-04-26 15:09 | 49.25407 | 10.04787 | 28982 ft | 457 kts | 134° |
| 2026-04-26 15:09 | 49.23263 | 10.08456 | 28701 ft | 455 kts | 134° |
| 2026-04-26 15:10 | 49.21162 | 10.12051 | 28423 ft | 453 kts | 134° |
| 2026-04-26 15:10 | 49.19772 | 10.14427 | 28251 ft | 452 kts | 134° |
| 2026-04-26 15:10 | 49.16999 | 10.19159 | 27897 ft | 450 kts | 134° |
| 2026-04-26 15:10 | 49.14917 | 10.22714 | 27633 ft | 448 kts | 134° |
| 2026-04-26 15:11 | 49.12834 | 10.26241 | 27371 ft | 446 kts | 135° |
| 2026-04-26 15:11 | 49.10719 | 10.29713 | 27120 ft | 445 kts | 136° |
| 2026-04-26 15:11 | 49.08588 | 10.33136 | 26859 ft | 443 kts | 136° |
| 2026-04-26 15:11 | 49.06457 | 10.36517 | 26594 ft | 441 kts | 136° |
| 2026-04-26 15:12 | 49.04335 | 10.39871 | 26331 ft | 438 kts | 136° |
| 2026-04-26 15:12 | 49.02232 | 10.43203 | 25765 ft | 434 kts | 136° |
| 2026-04-26 15:12 | 49.00151 | 10.46510 | 25187 ft | 431 kts | 136° |
| 2026-04-26 15:12 | 48.98086 | 10.49797 | 24620 ft | 428 kts | 136° |
| 2026-04-26 15:13 | 48.96028 | 10.53077 | 24057 ft | 426 kts | 136° |
| 2026-04-26 15:13 | 48.94011 | 10.56293 | 23467 ft | 424 kts | 136° |
| 2026-04-26 15:13 | 48.91984 | 10.59519 | 22952 ft | 419 kts | 136° |
| 2026-04-26 15:13 | 48.89979 | 10.62714 | 22456 ft | 415 kts | 135° |
| 2026-04-26 15:14 | 48.87997 | 10.65873 | 21984 ft | 411 kts | 135° |
| 2026-04-26 15:14 | 48.86027 | 10.69001 | 21525 ft | 407 kts | 135° |
| 2026-04-26 15:14 | 48.84072 | 10.72091 | 21062 ft | 404 kts | 135° |
| 2026-04-26 15:14 | 48.82133 | 10.75154 | 20605 ft | 400 kts | 135° |
| 2026-04-26 15:15 | 48.80213 | 10.78191 | 20137 ft | 397 kts | 135° |
| 2026-04-26 15:15 | 48.78303 | 10.81214 | 19673 ft | 395 kts | 135° |
| 2026-04-26 15:15 | 48.76399 | 10.84205 | 19191 ft | 393 kts | 135° |
| 2026-04-26 15:15 | 48.74491 | 10.87183 | 18712 ft | 392 kts | 135° |
| 2026-04-26 15:16 | 48.72600 | 10.90130 | 18207 ft | 390 kts | 135° |
| 2026-04-26 15:16 | 48.70737 | 10.93034 | 17718 ft | 387 kts | 135° |
| 2026-04-26 15:16 | 48.68867 | 10.95953 | 17233 ft | 384 kts | 135° |
| 2026-04-26 15:16 | 48.67009 | 10.98853 | 16753 ft | 383 kts | 135° |
| 2026-04-26 15:17 | 48.65159 | 11.01740 | 16253 ft | 381 kts | 135° |
| 2026-04-26 15:17 | 48.63917 | 11.03673 | 15933 ft | 379 kts | 135° |
| 2026-04-26 15:17 | 48.61475 | 11.07459 | 15299 ft | 378 kts | 135° |
| 2026-04-26 15:17 | 48.59634 | 11.10307 | 14815 ft | 378 kts | 135° |
| 2026-04-26 15:18 | 48.57746 | 11.13034 | 14360 ft | 375 kts | 142° |
| 2026-04-26 15:18 | 48.55641 | 11.15287 | 14193 ft | 367 kts | 144° |
| 2026-04-26 15:18 | 48.53860 | 11.18021 | 14210 ft | 366 kts | 126° |
| 2026-04-26 15:18 | 48.52749 | 11.21398 | 14209 ft | 359 kts | 108° |
| 2026-04-26 15:19 | 48.52326 | 11.25070 | 13935 ft | 354 kts | 90° |
| 2026-04-26 15:19 | 48.52615 | 11.28736 | 13521 ft | 351 kts | 76° |
| 2026-04-26 15:19 | 48.53148 | 11.32328 | 13102 ft | 350 kts | 77° |
| 2026-04-26 15:19 | 48.53668 | 11.35910 | 12707 ft | 347 kts | 77° |
| 2026-04-26 15:20 | 48.54175 | 11.39461 | 12289 ft | 345 kts | 77° |
| 2026-04-26 15:20 | 48.54671 | 11.42998 | 11896 ft | 343 kts | 78° |
| 2026-04-26 15:20 | 48.55153 | 11.46448 | 11561 ft | 326 kts | 77° |
| 2026-04-26 15:20 | 48.55611 | 11.49724 | 11442 ft | 313 kts | 78° |
| 2026-04-26 15:21 | 48.56053 | 11.52869 | 11289 ft | 308 kts | 77° |
| 2026-04-26 15:21 | 48.56474 | 11.56058 | 11059 ft | 305 kts | 83° |
| 2026-04-26 15:21 | 48.56460 | 11.59196 | 10708 ft | 301 kts | 99° |
| 2026-04-26 15:21 | 48.55884 | 11.62206 | 10199 ft | 298 kts | 115° |
| 2026-04-26 15:22 | 48.54828 | 11.64926 | 9579 ft | 295 kts | 124° |
| 2026-04-26 15:22 | 48.53724 | 11.67484 | 8906 ft | 294 kts | 124° |
| 2026-04-26 15:22 | 48.52603 | 11.70092 | 8355 ft | 292 kts | 124° |
| 2026-04-26 15:22 | 48.51519 | 11.72620 | 7840 ft | 289 kts | 123° |
| 2026-04-26 15:23 | 48.50439 | 11.75153 | 7309 ft | 286 kts | 123° |
| 2026-04-26 15:23 | 48.49368 | 11.77668 | 6775 ft | 285 kts | 123° |
| 2026-04-26 15:23 | 48.48302 | 11.80161 | 6239 ft | 282 kts | 122° |
| 2026-04-26 15:23 | 48.47247 | 11.82624 | 6014 ft | 279 kts | 123° |
| 2026-04-26 15:24 | 48.46193 | 11.85090 | 6006 ft | 281 kts | 121° |
| 2026-04-26 15:24 | 48.45153 | 11.87576 | 5806 ft | 277 kts | 122° |
| 2026-04-26 15:24 | 48.44104 | 11.90030 | 5952 ft | 278 kts | 123° |
| 2026-04-26 15:24 | 48.43096 | 11.92352 | 5987 ft | 252 kts | 122° |
| 2026-04-26 15:25 | 48.42152 | 11.94526 | 6002 ft | 245 kts | 122° |
| 2026-04-26 15:25 | 48.41535 | 11.95952 | 5999 ft | 244 kts | 123° |
| 2026-04-26 15:25 | 48.40199 | 11.98690 | 5872 ft | 243 kts | 143° |
| 2026-04-26 15:25 | 48.38710 | 11.99661 | 5470 ft | 231 kts | 179° |
| 2026-04-26 15:26 | 48.37260 | 11.99083 | 5670 ft | 216 kts | 218° |
| 2026-04-26 15:26 | 48.36203 | 11.97453 | 5357 ft | 220 kts | 238° |
| 2026-04-26 15:26 | 48.35581 | 11.95317 | 4826 ft | 234 kts | 254° |
| 2026-04-26 15:26 | 48.35320 | 11.92701 | 3693 ft | 271 kts | 269° |
| 2026-04-26 15:27 | 48.35180 | 11.89918 | 2989 ft | 281 kts | 261° |
| 2026-04-26 15:27 | 48.34877 | 11.87318 | 3846 ft | 230 kts | 265° |